• Join FlightAware (Why Join?)
  • Login
  • US Flag 
01:53AM EDT


 

Airport Tracker/Info


-or-


 

Live Flight TrackerFlight Track Log ✈ EGF4247 ✈ 05-Jun-2013 ✈ KBUF - KORD

Flight Track Log - Related Links

Times and Time Zones

All times are in EDT time to prevent confusion due to time zone crossing. See the EGF4247 flight status page for this flight to view local times or setup timezone preferences in your user account.

Time Position Orientation Groundspeed Altitude Reporting Facility
EDT Latitude Longitude Course Direction KTS MPH feet Rate Location/Type
03:48PM 42.9500 -78.7167 270° West 159 183 1,300  Level Buffalo TRACON
03:49PM 42.9667 -78.7000 36° Northeast 155 178 2,200 1,980 Climbing Buffalo TRACON
03:50PM 43.0167 -78.6667 26° Northeast 219 252 4,300 2,100 Climbing Buffalo TRACON
03:51PM 42.9500 -79.0603 270° West  Level FlightAware Approximate
03:51PM 43.0333 -78.7500 285° West 236 272 6,700  Level Buffalo TRACON
03:52PM 42.9591 -79.1750 277° West  Level FlightAware Approximate
03:52PM 43.0333 -78.8500 270° West 274 315 8,200  Level Buffalo TRACON
03:53PM 42.9667 -79.2899 270° West  Level FlightAware Approximate
03:53PM 43.0333 -78.9333 270° West 260 299 10,600  Level Toronto Center
03:54PM 43.0333 -79.0167 270° West 270 311 11,600 1,020 Climbing Toronto Center
03:55PM 43.0333 -79.1333 270° West 300 345 12,700 1,020 Climbing Toronto Center
03:56PM 43.0333 -79.2667 270° West 320 368 13,700 960 Climbing Toronto Center
03:57PM 43.0333 -79.3833 270° West 330 380 14,700 960 Climbing Toronto Center
03:58PM 43.0333 -79.5167 270° West 340 391 15,700 1,380 Climbing Toronto Center
03:59PM 43.0333 -79.6333 270° West 330 380 17,500 1,560 Climbing Toronto Center
04:00PM 43.0333 -79.7500 270° West 320 368 18,900 1,200 Climbing Toronto Center
04:01PM 43.0333 -79.8833 270° West 320 368 20,000 960 Climbing Toronto Center
04:02PM 43.0333 -80.0000 270° West 330 380 20,900 960 Climbing Toronto Center
04:03PM 43.0333 -80.1333 270° West 340 391 22,000 960 Climbing Toronto Center
04:04PM 43.0333 -80.2667 270° West 350 403 22,900 900 Climbing Toronto Center
04:05PM 43.0333 -80.4167 270° West 360 414 23,900 960 Climbing Toronto Center
04:06PM 43.0333 -80.5500 270° West 360 414 24,900 1,140 Climbing Toronto Center
04:07PM 43.0167 -80.6833 260° West 350 403 26,200 1,380 Climbing Toronto Center
04:08PM 43.0000 -80.8000 259° West 340 391 27,700 1,320 Climbing Toronto Center
04:09PM 42.9833 -80.9333 260° West 330 380 28,900 1,200 Climbing Toronto Center
04:10PM 42.9833 -81.0500 270° West 320 368 30,100 1,140 Climbing Toronto Center
04:11PM 42.9833 -81.1667 270° West 320 368 31,200 900 Climbing Toronto Center
04:12PM 42.9833 -81.3000 270° West 320 368 32,000 360 Climbing Toronto Center
04:13PM 42.9833 -81.4333 270° West 340 391 32,000  Level Toronto Center
04:14PM 42.9833 -81.5667 270° West 360 414 32,000  Level Toronto Center
04:15PM 42.9833 -81.7000 270° West 380 437 32,000  Level Toronto Center
04:16PM 42.9833 -81.8500 270° West 380 437 32,000  Level Toronto Center
04:17PM 42.9667 -81.9833 260° West 380 437 32,000  Level Toronto Center
04:18PM 42.9833 -82.1333 279° West 380 437 32,000  Level Toronto Center
04:19PM 42.9833 -82.2833 270° West 380 437 32,000  Level Toronto Center
04:20PM 42.9833 -82.4333 270° West 380 437 32,000  Level Toronto Center
04:21PM 42.9833 -82.5667 270° West 380 437 32,000  Level Toronto Center
04:22PM 42.9667 -82.7167 261° West 380 437 32,000  Level Toronto Center
04:22PM 42.9858 -82.7572 303° West 384 442 32,000  Level Cleveland Center
04:23PM 42.9828 -82.9047 268° West 384 442 32,000  Level Cleveland Center
04:24PM 42.9778 -83.0464 267° West 384 442 32,000  Level Cleveland Center
04:25PM 42.9767 -83.1911 269° West 384 442 32,000  Level Cleveland Center
04:26PM 42.9753 -83.3386 269° West 384 442 32,000  Level Cleveland Center
04:27PM 42.9717 -83.4861 268° West 389 448 32,000  Level Cleveland Center
04:28PM 42.9681 -83.6278 268° West 384 442 32,000  Level Cleveland Center
04:29PM 42.9642 -83.7722 268° West 384 442 32,000  Level Cleveland Center
04:30PM 42.9497 -83.9164 262° West 384 442 32,000  Level Cleveland Center
04:31PM 42.9353 -84.0572 262° West 384 442 32,000  Level Cleveland Center
04:32PM 42.9203 -84.2011 262° West 384 442 32,000  Level Cleveland Center
04:33PM 42.9053 -84.3419 262° West 384 442 32,000  Level Cleveland Center
04:34PM 42.8906 -84.5158 263° West 383 441 32,000  Level Chicago Center
04:35PM 42.8761 -84.6583 262° West 382 440 32,000  Level Chicago Center
04:36PM 42.8617 -84.8033 262° West 386 444 32,000  Level Chicago Center
04:37PM 42.8469 -84.9464 262° West 384 442 32,000  Level Chicago Center
04:38PM 42.8311 -85.0897 261° West 383 441 32,000 -780 Level Chicago Center
04:39PM 42.8125 -85.2608 262° West 382 440 30,500 -1,380 Descending Chicago Center
04:40PM 42.7964 -85.4083 262° West 392 451 29,200 -780 Descending Chicago Center
04:41PM 42.7769 -85.5569 260° West 397 457 29,000 -120 Descending Chicago Center
04:42PM 42.7497 -85.7031 256° West 397 457 29,000  Level Chicago Center
04:43PM 42.7231 -85.8511 256° West 399 459 29,000 -540 Level Chicago Center
04:44PM 42.6964 -85.9983 256° West 399 459 28,000 -1,020 Descending Chicago Center
04:45PM 42.6689 -86.1489 256° West 406 467 26,900 -1,740 Descending Chicago Center
04:46PM 42.6422 -86.2933 256° West 397 457 24,400 -2,820 Descending Chicago Center
04:47PM 42.6092 -86.4619 255° West 386 444 21,100 -3,000 Descending Chicago Center
04:48PM 42.5842 -86.5997 256° West 379 436 18,300 -2,580 Descending Chicago Center
04:50PM 42.5583 -86.7358 256° West 374 430 15,800 -2,400 Descending Chicago Center
04:51PM 42.5253 -86.8628 251° West 362 417 13,400 -2,400 Descending Chicago Center
04:52PM 42.4903 -86.9817 248° West 346 398 10,900 -1,680 Descending Chicago Center
04:53PM 42.4556 -87.1028 249° West 344 396 10,000 -480 Descending Chicago Center
04:54PM 42.4175 -87.2478 250° West 343 395 10,000  Level Chicago Center
04:55PM 42.3842 -87.3650 249° West 336 387 10,000  Level Chicago Center
04:56PM 42.3539 -87.4789 250° West 329 379 10,000  Level Chicago Center
04:57PM 42.3022 -87.5781 235° Southwest 331 381 10,000  Level Chicago Center
04:58PM 42.2158 -87.6689 218° Southwest 328 377 10,000  Level Chicago Center
04:59PM 42.1475 -87.7386 217° Southwest 309 356 10,000 -540 Level Chicago Center
05:00PM 42.0786 -87.7686 198° South 270 311 9,000 -960 Descending Chicago Center
05:01PM 42.0072 -87.7928 194° South 264 304 8,100 -540 Descending Chicago Center
05:02PM 41.9375 -87.8261 200° South 267 307 8,000 -1,200 Descending Chicago Center
05:03PM 41.8694 -87.8931 216° Southwest 254 292 5,700 -1,680 Descending Chicago Center
05:04PM 41.8197 -87.9511 221° Southwest 249 287 4,600 -1,080 Descending Chicago Center